Time,TemperatureF,DewpointF,PressureIn,WindDirection,WindDirectionDegrees,WindSpeedMPH,WindSpeedGustMPH,Humidity,HourlyPrecipIn,Conditions,Clouds,dailyrainin,SoftwareType,DateUTC
2013-09-01 08:42:00,66.0,65.0,29.88,ENE,77,0.0,0.0,98,0.00,,,0.09,,2013-09-01 12:42:00,
2013-09-01 08:52:00,67.0,66.0,29.88,ENE,77,0.0,0.0,98,0.00,,,0.09,,2013-09-01 12:52:00,
2013-09-01 09:11:00,67.0,66.0,29.88,ENE,78,0.0,0.0,98,0.00,,,0.09,,2013-09-01 13:11:00,
2013-09-01 09:21:00,67.0,66.0,29.88,ENE,77,0.0,0.0,98,0.00,,,0.09,,2013-09-01 13:21:00,
2013-09-01 09:52:00,67.0,66.0,29.88,NE,44,0.0,0.0,98,0.00,,,0.09,,2013-09-01 13:52:00,
2013-09-01 10:11:00,68.0,67.0,29.88,NE,47,0.0,0.0,98,0.00,,,0.09,,2013-09-01 14:11:00,
2013-09-01 10:22:00,68.0,67.0,29.88,NNE,30,0.0,0.0,98,0.00,,,0.09,,2013-09-01 14:22:00,
2013-09-01 10:42:00,69.0,68.0,29.88,NE,49,0.0,0.0,98,0.00,,,0.09,,2013-09-01 14:42:00,
2013-09-01 10:52:00,70.0,69.0,29.88,ENE,62,0.0,0.0,97,0.00,,,0.09,,2013-09-01 14:52:00,
2013-09-01 11:11:00,70.0,69.0,29.88,NE,39,0.0,3.0,97,0.00,,,0.09,,2013-09-01 15:11:00,
2013-09-01 11:23:00,72.0,71.0,29.88,NE,42,0.0,0.0,97,0.00,,,0.09,,2013-09-01 15:23:00,
2013-09-01 11:45:00,73.0,72.0,29.88,West,266,0.0,0.0,96,0.00,,,0.09,,2013-09-01 15:45:00,
2013-09-01 11:55:00,74.0,71.0,29.88,SW,231,0.0,5.0,90,0.00,,,0.09,,2013-09-01 15:55:00,
2013-09-01 12:14:00,76.0,72.0,29.88,West,270,0.0,3.0,86,0.00,,,0.09,,2013-09-01 16:14:00,
2013-09-01 12:24:00,76.0,70.0,29.88,WSW,248,1.0,4.0,82,0.00,,,0.09,,2013-09-01 16:24:00,
2013-09-01 12:43:00,77.0,71.0,29.88,WSW,249,4.0,6.0,81,0.00,,,0.09,,2013-09-01 16:43:00,
2013-09-01 12:53:00,76.0,70.0,29.88,West,277,1.0,5.0,83,0.00,,,0.09,,2013-09-01 16:53:00,
2013-09-01 13:12:00,76.0,70.0,29.87,WNW,288,0.0,3.0,82,0.00,,,0.09,,2013-09-01 17:12:00,
2013-09-01 13:23:00,79.0,72.0,29.86,West,269,2.0,3.0,79,0.00,,,0.09,,2013-09-01 17:23:00,
2013-09-01 13:42:00,78.0,72.0,29.86,WSW,249,1.0,5.0,82,0.00,,,0.09,,2013-09-01 17:42:00,
2013-09-01 13:52:00,78.0,71.0,29.86,WNW,300,0.0,4.0,80,0.00,,,0.09,,2013-09-01 17:52:00,
2013-09-01 14:13:00,79.0,71.0,29.85,SW,235,2.0,3.0,77,0.00,,,0.09,,2013-09-01 18:13:00,
2013-09-01 14:22:00,80.0,71.0,29.85,West,267,2.0,5.0,74,0.00,,,0.09,,2013-09-01 18:22:00,
2013-09-01 14:42:00,80.0,71.0,29.84,West,273,0.0,4.0,75,0.00,,,0.09,,2013-09-01 18:42:00,
2013-09-01 14:52:00,80.0,71.0,29.84,NE,44,1.0,8.0,74,0.00,,,0.09,,2013-09-01 18:52:00,
2013-09-01 15:12:00,80.0,71.0,29.84,SW,226,1.0,3.0,74,0.00,,,0.09,,2013-09-01 19:12:00,
2013-09-01 15:22:00,80.0,71.0,29.84,WSW,252,2.0,3.0,73,0.00,,,0.09,,2013-09-01 19:22:00,
2013-09-01 15:52:00,81.0,71.0,29.83,WSW,240,1.0,6.0,72,0.00,,,0.09,,2013-09-01 19:52:00,
2013-09-01 16:12:00,82.0,71.0,29.83,SW,222,2.0,5.0,69,0.00,,,0.09,,2013-09-01 20:12:00,
2013-09-01 16:22:00,82.0,71.0,29.83,SW,221,1.0,2.0,70,0.00,,,0.09,,2013-09-01 20:22:00,
2013-09-01 16:42:00,82.0,71.0,29.83,SSE,158,3.0,7.0,69,0.00,,,0.09,,2013-09-01 20:42:00,
2013-09-01 16:52:00,83.0,72.0,29.83,SSW,212,0.0,5.0,69,0.00,,,0.09,,2013-09-01 20:52:00,
2013-09-01 17:22:00,82.0,72.0,29.83,SSE,148,2.0,5.0,71,0.00,,,0.09,,2013-09-01 21:22:00,
2013-09-01 17:55:00,82.0,71.0,29.82,SW,226,1.0,4.0,69,0.00,,,0.09,,2013-09-01 21:55:00,
2013-09-01 18:15:00,83.0,72.0,29.81,North,3,1.0,5.0,69,0.00,,,0.09,,2013-09-01 22:15:00,
2013-09-01 18:24:00,83.0,72.0,29.81,South,174,1.0,3.0,69,0.00,,,0.09,,2013-09-01 22:24:00,
2013-09-01 18:53:00,82.0,72.0,29.81,WSW,243,0.0,1.0,72,0.00,,,0.09,,2013-09-01 22:53:00,
2013-09-01 19:12:00,80.0,71.0,29.81,South,169,0.0,1.0,74,0.00,,,0.09,,2013-09-01 23:12:00,
2013-09-01 19:23:00,78.0,70.0,29.81,South,169,0.0,0.0,76,0.00,,,0.09,,2013-09-01 23:23:00,
2013-09-01 19:42:00,76.0,70.0,29.82,South,169,0.0,0.0,81,0.00,,,0.09,,2013-09-01 23:42:00,
2013-09-01 19:53:00,75.0,69.0,29.82,South,169,0.0,0.0,83,0.00,,,0.09,,2013-09-01 23:53:00,
2013-09-01 20:11:00,74.0,70.0,29.82,South,169,0.0,0.0,86,0.00,,,0.09,,2013-09-02 00:11:00,
2013-09-01 20:22:00,74.0,70.0,29.82,South,169,0.0,0.0,87,0.00,,,0.09,,2013-09-02 00:22:00,
2013-09-01 20:42:00,73.0,69.0,29.83,South,169,0.0,0.0,88,0.00,,,0.09,,2013-09-02 00:42:00,
2013-09-01 20:52:00,73.0,69.0,29.83,SW,221,0.0,0.0,88,0.00,,,0.09,,2013-09-02 00:52:00,
2013-09-01 21:12:00,72.0,69.0,29.83,SW,221,0.0,0.0,89,0.00,,,0.09,,2013-09-02 01:12:00,
2013-09-01 21:22:00,72.0,69.0,29.83,SW,221,0.0,0.0,91,0.00,,,0.09,,2013-09-02 01:22:00,
2013-09-01 21:42:00,72.0,69.0,29.84,SW,220,0.0,0.0,91,0.00,,,0.09,,2013-09-02 01:42:00,
2013-09-01 21:52:00,72.0,69.0,29.84,SW,221,0.0,0.0,91,0.00,,,0.09,,2013-09-02 01:52:00,
2013-09-01 22:12:00,71.0,69.0,29.85,SW,220,0.0,0.0,92,0.00,,,0.09,,2013-09-02 02:12:00,
2013-09-01 22:22:00,71.0,69.0,29.85,SW,220,0.0,0.0,92,0.00,,,0.09,,2013-09-02 02:22:00,
2013-09-01 22:42:00,71.0,69.0,29.85,SW,221,0.0,0.0,93,0.00,,,0.09,,2013-09-02 02:42:00,
2013-09-01 22:52:00,71.0,69.0,29.85,SW,220,0.0,0.0,93,0.00,,,0.09,,2013-09-02 02:52:00,
2013-09-01 23:11:00,71.0,69.0,29.84,SW,220,0.0,0.0,93,0.00,,,0.09,,2013-09-02 03:11:00,
2013-09-01 23:22:00,71.0,69.0,29.84,West,266,1.0,2.0,93,0.00,,,0.09,,2013-09-02 03:22:00,
2013-09-01 23:56:00,70.0,68.0,29.83,WSW,238,0.0,0.0,94,0.00,,,0.02,,2013-09-02 03:56:00,